Time;durP1;ratioP1;P1;durP2;ratioP2;P2;SDS_P1;SDS_P2;PMS_P1;PMS_P2;Temp;Humidity;BMP_temperature;BMP_pressure;BME280_temperature;BME280_humidity;BME280_pressure;Samples;Min_cycle;Max_cycle;Signal;HPM_P1;HPM_P2
2024/03/15 00:02:10;;;;;;;;;;;22.40;51.80;;;;;;5083985;28;20023;-66
2024/03/15 00:04:36;;;;;;;;;;;22.30;51.80;;;;;;5082044;28;20406;-66
2024/03/15 00:07:04;;;;;;;;;;;22.30;51.80;;;;;;5082827;28;19904;-66
2024/03/15 00:09:29;;;;;;;;;;;22.30;51.80;;;;;;5082413;28;19904;-66
2024/03/15 00:11:55;;;;;;;;;;;22.30;51.80;;;;;;5081817;28;19931;-66
2024/03/15 00:14:21;;;;;;;;;;;22.30;51.80;;;;;;5081536;28;20360;-66
2024/03/15 00:16:50;;;;;;;;;;;22.30;51.80;;;;;;5082813;28;19904;-67
2024/03/15 00:19:19;;;;;;;;;;;22.30;51.80;;;;;;5079928;28;19956;-67
2024/03/15 00:21:45;;;;;;;;;;;22.30;51.80;;;;;;5082241;28;19908;-66
2024/03/15 00:24:12;;;;;;;;;;;22.30;51.80;;;;;;5082943;28;19908;-66
2024/03/15 00:26:37;;;;;;;;;;;22.30;51.80;;;;;;5082586;28;20360;-67
2024/03/15 00:29:04;;;;;;;;;;;22.30;51.80;;;;;;5083483;28;19931;-66
2024/03/15 00:31:29;;;;;;;;;;;22.30;51.80;;;;;;5082630;28;19908;-67
2024/03/15 00:33:55;;;;;;;;;;;22.20;51.80;;;;;;5062555;28;20439;-66
2024/03/15 00:36:20;;;;;;;;;;;22.20;51.80;;;;;;5080924;28;19932;-66
2024/03/15 00:38:46;;;;;;;;;;;22.20;51.80;;;;;;5082613;28;20630;-66
2024/03/15 00:41:11;;;;;;;;;;;22.20;51.80;;;;;;5079895;28;19911;-66
2024/03/15 00:43:37;;;;;;;;;;;22.20;51.80;;;;;;5081308;28;19908;-63
2024/03/15 00:46:02;;;;;;;;;;;22.20;51.80;;;;;;5082707;28;19911;-63
2024/03/15 00:48:28;;;;;;;;;;;22.20;51.80;;;;;;5079477;28;19908;-64
2024/03/15 00:50:54;;;;;;;;;;;22.20;51.80;;;;;;5080222;28;19915;-63
2024/03/15 00:53:19;;;;;;;;;;;22.20;51.80;;;;;;5080424;28;20241;-63
2024/03/15 00:55:45;;;;;;;;;;;22.20;51.80;;;;;;5082127;28;20039;-66
2024/03/15 00:58:11;;;;;;;;;;;22.20;51.80;;;;;;5081444;28;19912;-66
2024/03/15 01:00:36;;;;;;;;;;;22.20;52.30;;;;;;5081777;28;19932;-66
2024/03/15 01:03:02;;;;;;;;;;;22.10;51.70;;;;;;5083069;28;20310;-66
2024/03/15 01:05:28;;;;;;;;;;;22.10;51.80;;;;;;5059907;28;19904;-65
2024/03/15 01:07:53;;;;;;;;;;;22.20;51.80;;;;;;5079127;28;19959;-66
2024/03/15 01:10:19;;;;;;;;;;;22.10;51.80;;;;;;5080749;28;19999;-66
2024/03/15 01:12:44;;;;;;;;;;;22.10;51.70;;;;;;5081207;28;19911;-66
2024/03/15 01:15:10;;;;;;;;;;;22.10;51.80;;;;;;5080759;28;19942;-66
2024/03/15 01:17:36;;;;;;;;;;;22.10;51.80;;;;;;5081544;28;19910;-66
2024/03/15 01:20:05;;;;;;;;;;;22.10;51.80;;;;;;5080842;28;19935;-66
2024/03/15 01:22:32;;;;;;;;;;;22.10;51.80;;;;;;5081082;28;20339;-66
2024/03/15 01:24:58;;;;;;;;;;;22.10;51.80;;;;;;5082058;28;20300;-66
2024/03/15 01:27:24;;;;;;;;;;;22.10;51.80;;;;;;5081471;28;20257;-66
2024/03/15 01:29:50;;;;;;;;;;;22.10;51.80;;;;;;5082903;28;19919;-66
2024/03/15 01:32:15;;;;;;;;;;;22.10;51.80;;;;;;5081021;28;20006;-66
2024/03/15 01:34:41;;;;;;;;;;;22.10;51.80;;;;;;5080308;28;19912;-62
2024/03/15 01:37:06;;;;;;;;;;;22.10;51.80;;;;;;5079786;28;19912;-63
2024/03/15 01:39:32;;;;;;;;;;;22.10;51.80;;;;;;5080011;28;19915;-63
2024/03/15 01:41:58;;;;;;;;;;;22.10;51.80;;;;;;5081969;28;19908;-63
2024/03/15 01:44:23;;;;;;;;;;;22.10;51.80;;;;;;5081229;28;20387;-63
2024/03/15 01:46:49;;;;;;;;;;;22.10;51.80;;;;;;5081945;28;19915;-63
2024/03/15 01:49:14;;;;;;;;;;;22.00;51.80;;;;;;5079470;28;19907;-63
2024/03/15 01:51:40;;;;;;;;;;;22.00;51.80;;;;;;5081865;28;19916;-63
2024/03/15 01:54:07;;;;;;;;;;;22.00;51.80;;;;;;5081317;28;19954;-64
2024/03/15 01:56:32;;;;;;;;;;;22.00;51.80;;;;;;5079739;28;19945;-64
2024/03/15 01:58:59;;;;;;;;;;;22.00;51.80;;;;;;5082175;28;19908;-64
2024/03/15 02:01:24;;;;;;;;;;;22.00;51.80;;;;;;5078745;28;19959;-65
2024/03/15 02:03:50;;;;;;;;;;;22.00;51.80;;;;;;5080339;28;19936;-62
2024/03/15 02:06:15;;;;;;;;;;;22.00;51.80;;;;;;5080037;28;19925;-62
2024/03/15 02:08:41;;;;;;;;;;;22.00;51.80;;;;;;5079624;28;19931;-63
2024/03/15 02:11:07;;;;;;;;;;;22.00;51.80;;;;;;5077677;28;19908;-64
2024/03/15 02:13:32;;;;;;;;;;;22.00;51.80;;;;;;5078529;28;19904;-63
2024/03/15 02:15:58;;;;;;;;;;;22.00;51.80;;;;;;5080631;28;19965;-63
2024/03/15 02:18:23;;;;;;;;;;;22.00;51.80;;;;;;5077275;28;20018;-63
2024/03/15 02:20:49;;;;;;;;;;;21.90;51.80;;;;;;5077709;28;19930;-64
2024/03/15 02:23:15;;;;;;;;;;;22.00;51.80;;;;;;5078784;28;19924;-62
2024/03/15 02:25:41;;;;;;;;;;;21.90;51.80;;;;;;5077961;28;20433;-63
2024/03/15 02:28:08;;;;;;;;;;;21.90;51.80;;;;;;5080356;28;19919;-63
2024/03/15 02:30:34;;;;;;;;;;;21.90;51.80;;;;;;5077985;28;19909;-63
2024/03/15 02:33:00;;;;;;;;;;;21.90;51.80;;;;;;5079159;28;19969;-63
2024/03/15 02:35:25;;;;;;;;;;;21.90;51.80;;;;;;5077067;28;19912;-63
2024/03/15 02:37:52;;;;;;;;;;;21.90;52.00;;;;;;5093422;28;19996;-63
2024/03/15 02:40:17;;;;;;;;;;;21.90;51.80;;;;;;5078940;28;20371;-64
2024/03/15 02:42:43;;;;;;;;;;;21.90;51.80;;;;;;5077977;28;19904;-63
2024/03/15 02:45:09;;;;;;;;;;;21.90;51.80;;;;;;5060092;28;20437;-64
2024/03/15 02:47:36;;;;;;;;;;;21.90;51.80;;;;;;5078531;28;20344;-64
2024/03/15 02:50:02;;;;;;;;;;;21.90;51.80;;;;;;5076436;28;19916;-64
2024/03/15 02:52:28;;;;;;;;;;;21.90;51.80;;;;;;5078193;28;19939;-64
2024/03/15 02:54:56;;;;;;;;;;;21.90;51.80;;;;;;5078145;28;19938;-64
2024/03/15 02:57:22;;;;;;;;;;;21.90;51.80;;;;;;5080891;28;20610;-64
2024/03/15 02:59:47;;;;;;;;;;;21.90;51.80;;;;;;5080017;28;20026;-64
2024/03/15 03:02:14;;;;;;;;;;;21.90;51.80;;;;;;5082325;28;19986;-65
2024/03/15 03:04:40;;;;;;;;;;;21.90;51.80;;;;;;5081135;28;19904;-64
2024/03/15 03:07:06;;;;;;;;;;;21.90;51.80;;;;;;5074256;28;19912;-64
2024/03/15 03:09:31;;;;;;;;;;;21.90;51.80;;;;;;5076160;28;19954;-64
2024/03/15 03:11:57;;;;;;;;;;;21.90;51.80;;;;;;5068082;28;19908;-64
2024/03/15 03:14:23;;;;;;;;;;;21.80;51.80;;;;;;5078906;28;20212;-66
2024/03/15 03:16:49;;;;;;;;;;;21.80;51.70;;;;;;5079832;28;19915;-66
2024/03/15 03:19:17;;;;;;;;;;;21.80;51.80;;;;;;5069967;28;257408;-67
2024/03/15 03:21:45;;;;;;;;;;;21.80;51.80;;;;;;5067540;28;20700;-66
2024/03/15 03:24:11;;;;;;;;;;;21.80;51.80;;;;;;5061015;28;20378;-66
2024/03/15 03:26:36;;;;;;;;;;;21.80;51.80;;;;;;5079587;28;19995;-66
2024/03/15 03:29:02;;;;;;;;;;;21.80;51.80;;;;;;5079674;28;20353;-66
2024/03/15 03:31:28;;;;;;;;;;;21.80;51.80;;;;;;5076067;28;19955;-66
2024/03/15 03:33:53;;;;;;;;;;;21.80;51.80;;;;;;5078416;28;19908;-66
2024/03/15 03:36:19;;;;;;;;;;;21.80;51.80;;;;;;5059789;28;20392;-66
2024/03/15 03:38:44;;;;;;;;;;;21.80;51.80;;;;;;5061376;28;19915;-66
2024/03/15 03:41:10;;;;;;;;;;;21.80;51.80;;;;;;5093576;28;19908;-66
2024/03/15 03:43:37;;;;;;;;;;;21.80;51.80;;;;;;5079337;28;19912;-66
2024/03/15 03:46:06;;;;;;;;;;;21.80;51.80;;;;;;5076999;28;19904;-66
2024/03/15 03:48:32;;;;;;;;;;;21.80;51.80;;;;;;5080134;28;19924;-66
2024/03/15 03:51:00;;;;;;;;;;;21.70;51.70;;;;;;5077361;28;19942;-66
2024/03/15 03:53:26;;;;;;;;;;;21.80;51.80;;;;;;5078805;28;19916;-66
2024/03/15 03:55:51;;;;;;;;;;;21.70;51.70;;;;;;5078941;28;20545;-63
2024/03/15 03:58:18;;;;;;;;;;;21.70;51.70;;;;;;5078953;28;19958;-63
2024/03/15 04:00:44;;;;;;;;;;;21.70;51.70;;;;;;5076902;28;19955;-62
2024/03/15 04:03:10;;;;;;;;;;;21.80;51.80;;;;;;5078494;28;20006;-63
2024/03/15 04:05:38;;;;;;;;;;;21.70;51.80;;;;;;5076873;28;19962;-63
2024/03/15 04:08:03;;;;;;;;;;;21.70;51.80;;;;;;5079293;28;20007;-63
2024/03/15 04:10:30;;;;;;;;;;;21.70;51.80;;;;;;5078927;28;20805;-63
2024/03/15 04:12:56;;;;;;;;;;;21.70;51.80;;;;;;5078447;28;19908;-64
2024/03/15 04:15:22;;;;;;;;;;;21.70;51.80;;;;;;5078401;28;20339;-66
2024/03/15 04:17:47;;;;;;;;;;;21.70;51.80;;;;;;5076605;28;19958;-66
2024/03/15 04:20:16;;;;;;;;;;;21.70;51.80;;;;;;5079981;28;19912;-66
2024/03/15 04:22:42;;;;;;;;;;;21.70;51.80;;;;;;5082488;28;19999;-66
2024/03/15 04:25:08;;;;;;;;;;;21.70;51.80;;;;;;5081432;28;19995;-62
2024/03/15 04:27:35;;;;;;;;;;;21.70;51.80;;;;;;5082429;28;20425;-63
2024/03/15 04:30:13;;;;;;;;;;;21.70;51.80;;;;;;5082021;28;19908;-63
2024/03/15 04:32:52;;;;;;;;;;;21.70;51.80;;;;;;5098171;28;20356;-63
2024/03/15 04:35:17;;;;;;;;;;;21.70;51.80;;;;;;5060129;28;19995;-63
2024/03/15 04:37:43;;;;;;;;;;;21.70;51.80;;;;;;5080389;28;20032;-63
2024/03/15 04:40:10;;;;;;;;;;;21.60;51.80;;;;;;5062002;28;19916;-63
2024/03/15 04:42:36;;;;;;;;;;;21.60;51.80;;;;;;5081721;28;19912;-63
2024/03/15 04:45:04;;;;;;;;;;;21.60;51.80;;;;;;5080025;28;19909;-62
2024/03/15 04:47:30;;;;;;;;;;;21.70;51.80;;;;;;5095361;28;20407;-62
2024/03/15 04:49:56;;;;;;;;;;;21.60;51.80;;;;;;5080684;28;19951;-62
2024/03/15 04:52:22;;;;;;;;;;;21.60;52.30;;;;;;5077947;28;19998;-63
2024/03/15 04:54:48;;;;;;;;;;;21.60;51.80;;;;;;5080577;28;19912;-63
2024/03/15 04:57:15;;;;;;;;;;;21.60;51.80;;;;;;5082139;28;19908;-63
2024/03/15 04:59:40;;;;;;;;;;;21.60;51.80;;;;;;5081056;28;19912;-63
2024/03/15 05:02:06;;;;;;;;;;;21.60;51.90;;;;;;5081677;28;19910;-62
2024/03/15 05:04:32;;;;;;;;;;;21.60;51.90;;;;;;5071875;28;19967;-63
2024/03/15 05:06:57;;;;;;;;;;;21.60;51.90;;;;;;5078048;28;20331;-63
2024/03/15 05:09:23;;;;;;;;;;;21.60;51.90;;;;;;5080922;28;20489;-63
2024/03/15 05:11:48;;;;;;;;;;;21.60;51.90;;;;;;5081175;28;19958;-63
2024/03/15 05:14:14;;;;;;;;;;;21.60;51.90;;;;;;5081794;28;19915;-63
2024/03/15 05:16:39;;;;;;;;;;;21.60;51.90;;;;;;5080895;28;20256;-64
2024/03/15 05:19:06;;;;;;;;;;;21.60;51.90;;;;;;5081884;28;19912;-63
2024/03/15 05:21:33;;;;;;;;;;;21.60;52.00;;;;;;5080139;28;20354;-64
2024/03/15 05:23:59;;;;;;;;;;;21.50;51.90;;;;;;5082914;28;20347;-63
2024/03/15 05:26:25;;;;;;;;;;;21.60;52.00;;;;;;5080289;28;19908;-63
2024/03/15 05:28:50;;;;;;;;;;;21.60;52.00;;;;;;5079503;28;19934;-64
2024/03/15 05:31:23;;;;;;;;;;;21.60;52.00;;;;;;5078982;28;19904;-63
2024/03/15 05:33:48;;;;;;;;;;;21.50;51.90;;;;;;5080961;28;19911;-66
2024/03/15 05:36:14;;;;;;;;;;;21.50;52.00;;;;;;5077737;28;19908;-66
2024/03/15 05:38:39;;;;;;;;;;;21.60;52.00;;;;;;5095809;28;19909;-66
2024/03/15 05:41:05;;;;;;;;;;;21.50;52.00;;;;;;5078295;28;19951;-66
2024/03/15 05:43:30;;;;;;;;;;;21.50;52.00;;;;;;5080054;28;19911;-66
2024/03/15 05:45:56;;;;;;;;;;;21.50;52.00;;;;;;5079864;28;19904;-66
2024/03/15 05:48:21;;;;;;;;;;;21.50;52.00;;;;;;5080715;28;19962;-66
2024/03/15 05:50:47;;;;;;;;;;;21.50;52.00;;;;;;5079701;28;19959;-66
2024/03/15 05:53:13;;;;;;;;;;;21.50;52.00;;;;;;5079951;28;20041;-66
2024/03/15 05:55:38;;;;;;;;;;;21.50;52.00;;;;;;5096500;28;19908;-66
2024/03/15 05:58:04;;;;;;;;;;;21.50;52.10;;;;;;5080706;28;20354;-66
2024/03/15 06:00:29;;;;;;;;;;;21.50;52.10;;;;;;5079609;28;19912;-66
2024/03/15 06:02:55;;;;;;;;;;;21.50;52.10;;;;;;5080431;28;19908;-66
2024/03/15 06:05:23;;;;;;;;;;;21.50;52.10;;;;;;5081042;28;19912;-66
2024/03/15 06:07:48;;;;;;;;;;;21.50;52.10;;;;;;5076650;28;20015;-66
2024/03/15 06:10:14;;;;;;;;;;;21.50;52.10;;;;;;5083895;28;19991;-66
2024/03/15 06:12:40;;;;;;;;;;;21.50;52.10;;;;;;5080433;28;19908;-65
2024/03/15 06:15:08;;;;;;;;;;;21.50;52.10;;;;;;5079684;28;19909;-63
2024/03/15 06:17:33;;;;;;;;;;;21.50;52.10;;;;;;5079848;28;20272;-63
2024/03/15 06:19:59;;;;;;;;;;;21.50;52.10;;;;;;5077960;28;19912;-62
2024/03/15 06:22:25;;;;;;;;;;;21.50;52.10;;;;;;5080970;28;19951;-63
2024/03/15 06:24:52;;;;;;;;;;;21.50;52.10;;;;;;5062090;28;19997;-62
2024/03/15 06:27:20;;;;;;;;;;;21.50;52.10;;;;;;5080179;28;19904;-63
2024/03/15 06:29:50;;;;;;;;;;;21.50;52.10;;;;;;5080131;28;20380;-62
2024/03/15 06:32:17;;;;;;;;;;;21.50;52.10;;;;;;5077594;28;20352;-63
2024/03/15 06:34:44;;;;;;;;;;;21.50;52.10;;;;;;5078603;28;20271;-63
2024/03/15 06:37:12;;;;;;;;;;;21.40;52.10;;;;;;5076696;28;19908;-63
2024/03/15 06:42:34;;;;;;;;;;;21.50;52.20;;;;;;5078039;28;19911;-63
2024/03/15 06:45:08;;;;;;;;;;;21.50;52.20;;;;;;5080034;28;19903;-62
2024/03/15 06:47:34;;;;;;;;;;;21.50;52.30;;;;;;5079282;28;19928;-62
2024/03/15 06:52:41;;;;;;;;;;;21.50;52.40;;;;;;5079473;28;19955;-62
2024/03/15 06:55:08;;;;;;;;;;;21.40;52.30;;;;;;5080022;28;19908;-63
2024/03/15 06:57:37;;;;;;;;;;;21.50;52.60;;;;;;5082347;28;19915;-63
2024/03/15 07:00:08;;;;;;;;;;;21.40;52.70;;;;;;5080988;28;20337;-63
2024/03/15 07:02:34;;;;;;;;;;;21.50;53.00;;;;;;5079216;28;19908;-63
2024/03/15 07:04:59;;;;;;;;;;;21.50;53.00;;;;;;5077333;28;20268;-62
2024/03/15 07:07:26;;;;;;;;;;;21.50;53.00;;;;;;5092732;28;19915;-62
2024/03/15 07:09:51;;;;;;;;;;;21.50;53.00;;;;;;5078754;28;20318;-63
2024/03/15 07:12:17;;;;;;;;;;;21.50;53.00;;;;;;5079137;28;19907;-63
2024/03/15 07:14:43;;;;;;;;;;;21.50;53.10;;;;;;5078951;28;20356;-63
2024/03/15 07:17:09;;;;;;;;;;;21.50;53.00;;;;;;5080885;28;19908;-63
2024/03/15 07:19:35;;;;;;;;;;;21.50;53.00;;;;;;5078355;28;19947;-63
2024/03/15 07:22:01;;;;;;;;;;;21.60;53.00;;;;;;5078481;28;19939;-63
2024/03/15 07:24:26;;;;;;;;;;;21.60;53.00;;;;;;5081237;28;19919;-66
2024/03/15 07:26:52;;;;;;;;;;;21.60;53.00;;;;;;5079452;28;19909;-66
2024/03/15 07:29:18;;;;;;;;;;;21.60;53.00;;;;;;5078849;28;20291;-66
2024/03/15 07:31:43;;;;;;;;;;;21.60;53.00;;;;;;5079244;28;19935;-66
2024/03/15 07:34:09;;;;;;;;;;;21.70;53.00;;;;;;5077185;28;19958;-63
2024/03/15 07:36:34;;;;;;;;;;;21.70;53.00;;;;;;5078909;28;19918;-64
2024/03/15 07:39:00;;;;;;;;;;;21.70;53.00;;;;;;5081573;28;19912;-64
2024/03/15 07:41:31;;;;;;;;;;;21.70;52.90;;;;;;5082510;28;19912;-65
2024/03/15 07:43:57;;;;;;;;;;;21.70;52.90;;;;;;5080904;28;20481;-63
2024/03/15 07:46:22;;;;;;;;;;;21.80;52.90;;;;;;5081317;28;19951;-63
2024/03/15 07:48:48;;;;;;;;;;;21.80;52.90;;;;;;5078905;28;19905;-63
2024/03/15 07:51:13;;;;;;;;;;;21.80;52.90;;;;;;5079795;28;19904;-62
2024/03/15 07:53:40;;;;;;;;;;;21.80;52.90;;;;;;5077527;28;19944;-63
2024/03/15 07:56:09;;;;;;;;;;;21.80;53.00;;;;;;5084950;28;19905;-63
2024/03/15 07:58:36;;;;;;;;;;;21.90;53.00;;;;;;5083437;28;19914;-63
2024/03/15 08:01:01;;;;;;;;;;;21.90;53.00;;;;;;5080851;28;19916;-62
2024/03/15 08:03:27;;;;;;;;;;;21.90;52.90;;;;;;5082003;28;20280;-63
2024/03/15 08:06:00;;;;;;;;;;;21.90;52.90;;;;;;5080885;28;19903;-63
2024/03/15 08:08:28;;;;;;;;;;;21.90;52.90;;;;;;5082210;28;20339;-63
2024/03/15 08:10:54;;;;;;;;;;;21.90;52.90;;;;;;5081098;28;19974;-64
2024/03/15 08:13:25;;;;;;;;;;;21.90;52.90;;;;;;5081428;28;19911;-64
2024/03/15 08:16:18;;;;;;;;;;;21.90;52.90;;;;;;5082977;28;19916;-63
2024/03/15 08:18:45;;;;;;;;;;;21.90;52.80;;;;;;5082966;28;19919;-63
2024/03/15 08:21:10;;;;;;;;;;;22.00;52.90;;;;;;5081679;28;20295;-63
2024/03/15 08:23:37;;;;;;;;;;;22.00;52.90;;;;;;5079411;28;19908;-63
2024/03/15 08:26:02;;;;;;;;;;;22.00;52.80;;;;;;5082012;28;19905;-63
2024/03/15 08:28:30;;;;;;;;;;;22.10;52.80;;;;;;5082317;28;20375;-63
2024/03/15 08:30:55;;;;;;;;;;;22.10;52.80;;;;;;5082711;28;19918;-63
2024/03/15 08:33:21;;;;;;;;;;;22.10;52.70;;;;;;5083785;28;19927;-63
2024/03/15 08:35:46;;;;;;;;;;;22.10;52.70;;;;;;5064533;28;19924;-63
2024/03/15 08:38:13;;;;;;;;;;;22.10;52.70;;;;;;5077832;28;20018;-63
2024/03/15 08:40:38;;;;;;;;;;;22.10;52.70;;;;;;5063429;28;20284;-63
2024/03/15 08:43:04;;;;;;;;;;;22.10;52.60;;;;;;5082496;28;19915;-63
2024/03/15 08:45:29;;;;;;;;;;;22.10;52.60;;;;;;5077691;28;19993;-65
2024/03/15 08:47:55;;;;;;;;;;;22.20;52.70;;;;;;5080087;28;20018;-65
2024/03/15 08:50:20;;;;;;;;;;;22.10;52.60;;;;;;5081724;28;19919;-64
2024/03/15 08:52:47;;;;;;;;;;;22.20;52.70;;;;;;5060527;28;19910;-65
2024/03/15 08:55:13;;;;;;;;;;;22.20;52.70;;;;;;5083079;28;19915;-66
2024/03/15 08:57:39;;;;;;;;;;;22.20;52.70;;;;;;5080577;28;19904;-67
2024/03/15 09:00:11;;;;;;;;;;;22.20;52.70;;;;;;5081657;28;19909;-67
2024/03/15 09:02:37;;;;;;;;;;;22.20;52.70;;;;;;5081538;28;19908;-67
2024/03/15 09:05:08;;;;;;;;;;;22.30;52.70;;;;;;5080334;28;19914;-64
2024/03/15 09:07:34;;;;;;;;;;;22.30;52.70;;;;;;5077478;28;20283;-65
2024/03/15 09:10:05;;;;;;;;;;;22.30;52.70;;;;;;5080315;28;19904;-65
2024/03/15 09:12:30;;;;;;;;;;;22.30;52.70;;;;;;5080963;28;20454;-65
2024/03/15 09:14:57;;;;;;;;;;;22.30;52.60;;;;;;5080364;28;19908;-64
2024/03/15 09:17:23;;;;;;;;;;;22.30;52.60;;;;;;5081473;28;19910;-64
2024/03/15 09:19:53;;;;;;;;;;;22.40;52.70;;;;;;5061957;28;19916;-65
2024/03/15 09:22:18;;;;;;;;;;;22.40;52.70;;;;;;5095898;28;19909;-65
2024/03/15 09:24:45;;;;;;;;;;;22.40;52.60;;;;;;5081889;28;19904;-65
2024/03/15 09:27:11;;;;;;;;;;;22.40;52.60;;;;;;5080994;28;19951;-65
2024/03/15 09:29:37;;;;;;;;;;;22.40;52.50;;;;;;5078373;28;19974;-64
2024/03/15 09:32:02;;;;;;;;;;;22.40;52.50;;;;;;5079420;28;19908;-64
2024/03/15 09:34:29;;;;;;;;;;;22.40;52.50;;;;;;5080921;28;19904;-65
2024/03/15 09:36:56;;;;;;;;;;;22.50;52.60;;;;;;5080654;28;20349;-64
2024/03/15 09:39:22;;;;;;;;;;;22.50;52.60;;;;;;5077671;28;19912;-64
2024/03/15 09:41:53;;;;;;;;;;;22.40;52.50;;;;;;5079958;28;20330;-65
2024/03/15 09:44:18;;;;;;;;;;;22.50;52.60;;;;;;5078529;28;20461;-64
2024/03/15 09:46:44;;;;;;;;;;;22.50;52.50;;;;;;5080886;28;19995;-65
2024/03/15 09:49:14;;;;;;;;;;;22.50;52.50;;;;;;5080588;28;19935;-64
2024/03/15 09:51:40;;;;;;;;;;;22.60;52.50;;;;;;5078087;28;19959;-65
2024/03/15 09:54:08;;;;;;;;;;;22.60;52.50;;;;;;5078698;28;19912;-63
2024/03/15 09:56:35;;;;;;;;;;;22.60;52.50;;;;;;5094729;28;19984;-63
2024/03/15 09:59:02;;;;;;;;;;;22.60;52.50;;;;;;5081841;28;19903;-63
2024/03/15 10:01:28;;;;;;;;;;;22.60;52.50;;;;;;5079797;28;20360;-62
2024/03/15 10:03:54;;;;;;;;;;;22.60;52.50;;;;;;5080991;28;19904;-64
2024/03/15 10:06:20;;;;;;;;;;;22.60;52.40;;;;;;5080897;28;19931;-64
2024/03/15 10:08:46;;;;;;;;;;;22.70;52.50;;;;;;5079015;28;19926;-64
2024/03/15 10:11:11;;;;;;;;;;;22.70;52.50;;;;;;5080064;28;19943;-64
2024/03/15 10:13:37;;;;;;;;;;;22.70;52.40;;;;;;5077898;28;19904;-65
2024/03/15 10:16:04;;;;;;;;;;;22.70;52.40;;;;;;5079884;28;19995;-63
2024/03/15 10:18:34;;;;;;;;;;;22.80;52.40;;;;;;5078874;28;19939;-63
2024/03/15 10:20:59;;;;;;;;;;;22.80;52.40;;;;;;5081027;28;19931;-62
2024/03/15 10:23:25;;;;;;;;;;;22.80;52.30;;;;;;5076145;28;20521;-64
2024/03/15 10:25:51;;;;;;;;;;;22.80;52.30;;;;;;5078980;28;19916;-63
2024/03/15 10:28:19;;;;;;;;;;;22.80;52.20;;;;;;5080268;28;19958;-63
2024/03/15 10:30:45;;;;;;;;;;;22.80;52.30;;;;;;5082428;28;19904;-63
2024/03/15 10:33:11;;;;;;;;;;;22.90;52.30;;;;;;5081398;28;19912;-62
2024/03/15 10:35:38;;;;;;;;;;;22.90;52.20;;;;;;5077376;28;19909;-64
2024/03/15 10:38:04;;;;;;;;;;;22.90;52.10;;;;;;5079380;28;20372;-62
2024/03/15 10:40:32;;;;;;;;;;;23.00;52.10;;;;;;5078445;28;19916;-63
2024/03/15 10:43:00;;;;;;;;;;;23.00;52.10;;;;;;5078814;28;19966;-63
2024/03/15 10:45:26;;;;;;;;;;;23.00;52.10;;;;;;5077921;28;19962;-63
2024/03/15 10:47:52;;;;;;;;;;;23.10;52.20;;;;;;5078621;28;19912;-62
2024/03/15 10:50:19;;;;;;;;;;;23.10;52.10;;;;;;5079636;28;19911;-63
2024/03/15 10:52:45;;;;;;;;;;;23.10;52.10;;;;;;5081344;28;19947;-63
2024/03/15 10:55:14;;;;;;;;;;;23.20;52.10;;;;;;5078796;28;19915;-63
2024/03/15 10:57:40;;;;;;;;;;;23.20;52.10;;;;;;5082367;28;19904;-64
2024/03/15 11:00:14;;;;;;;;;;;23.20;52.10;;;;;;5085674;28;19922;-64
2024/03/15 11:02:46;;;;;;;;;;;23.20;52.10;;;;;;5083933;28;19915;-64
2024/03/15 11:05:19;;;;;;;;;;;23.20;52.00;;;;;;5078707;28;19958;-65
2024/03/15 11:07:48;;;;;;;;;;;23.20;52.00;;;;;;5077393;28;19915;-64
2024/03/15 11:10:14;;;;;;;;;;;23.30;52.00;;;;;;5075960;28;19904;-64
2024/03/15 11:12:40;;;;;;;;;;;23.30;52.00;;;;;;5079055;28;19953;-64
2024/03/15 11:15:17;;;;;;;;;;;23.30;52.00;;;;;;5077753;28;19934;-63
2024/03/15 11:17:43;;;;;;;;;;;23.30;52.10;;;;;;5082358;28;19923;-64
2024/03/15 11:20:12;;;;;;;;;;;23.30;52.30;;;;;;5083468;28;20353;-63
2024/03/15 11:22:37;;;;;;;;;;;23.40;52.20;;;;;;5080105;28;20399;-64
2024/03/15 11:25:05;;;;;;;;;;;23.30;52.20;;;;;;5077971;28;19920;-64
2024/03/15 11:27:31;;;;;;;;;;;23.40;52.20;;;;;;5078503;28;19915;-64
2024/03/15 11:29:58;;;;;;;;;;;23.40;52.10;;;;;;5079400;28;19921;-64
2024/03/15 11:32:23;;;;;;;;;;;23.40;52.20;;;;;;5081609;28;19908;-64
2024/03/15 11:34:49;;;;;;;;;;;23.50;52.30;;;;;;5083380;28;19908;-64
2024/03/15 11:37:16;;;;;;;;;;;23.50;52.10;;;;;;5083164;28;19995;-64
2024/03/15 11:39:43;;;;;;;;;;;23.50;52.10;;;;;;5081322;28;20368;-64
2024/03/15 11:42:10;;;;;;;;;;;23.50;52.20;;;;;;5082031;28;19920;-65
2024/03/15 11:44:35;;;;;;;;;;;23.50;52.10;;;;;;5083851;28;20392;-64
2024/03/15 11:47:01;;;;;;;;;;;23.50;52.10;;;;;;5081338;28;19912;-64
2024/03/15 11:49:27;;;;;;;;;;;23.50;52.10;;;;;;5080269;28;19916;-64
2024/03/15 11:51:58;;;;;;;;;;;23.50;52.60;;;;;;5083116;28;19904;-64
2024/03/15 11:54:25;;;;;;;;;;;23.50;52.10;;;;;;5079360;28;19912;-64
2024/03/15 11:56:57;;;;;;;;;;;23.50;52.00;;;;;;5080365;28;19912;-64
2024/03/15 11:59:28;;;;;;;;;;;23.60;52.20;;;;;;5083033;28;19908;-63
2024/03/15 12:01:55;;;;;;;;;;;23.60;52.20;;;;;;5081680;28;19904;-65
2024/03/15 12:04:24;;;;;;;;;;;23.60;52.30;;;;;;5080827;28;20348;-63
2024/03/15 12:06:50;;;;;;;;;;;23.60;52.20;;;;;;5082188;28;20297;-64
2024/03/15 12:09:15;;;;;;;;;;;23.60;52.20;;;;;;5079613;28;19919;-64
2024/03/15 12:11:42;;;;;;;;;;;23.60;52.10;;;;;;5080871;28;19912;-63
2024/03/15 12:14:10;;;;;;;;;;;23.60;52.20;;;;;;5084132;28;20294;-63
2024/03/15 12:16:36;;;;;;;;;;;23.60;52.10;;;;;;5082828;28;20308;-64
2024/03/15 12:19:02;;;;;;;;;;;23.60;52.20;;;;;;5072588;28;19923;-67
2024/03/15 12:21:28;;;;;;;;;;;23.60;52.10;;;;;;5081757;28;20030;-64
2024/03/15 12:23:54;;;;;;;;;;;23.60;52.60;;;;;;5080853;28;19916;-63
2024/03/15 12:26:20;;;;;;;;;;;23.60;52.10;;;;;;5079066;28;19962;-63
2024/03/15 12:28:47;;;;;;;;;;;23.60;52.10;;;;;;5081453;28;20374;-63
2024/03/15 12:31:12;;;;;;;;;;;23.60;52.10;;;;;;5081022;28;19918;-62
2024/03/15 12:33:38;;;;;;;;;;;23.60;52.00;;;;;;5082261;28;19962;-63
2024/03/15 12:36:05;;;;;;;;;;;23.60;52.00;;;;;;5080789;28;20023;-63
2024/03/15 12:38:30;;;;;;;;;;;23.60;52.00;;;;;;5063649;28;20337;-64
2024/03/15 12:40:56;;;;;;;;;;;23.60;52.00;;;;;;5079725;28;19911;-63
2024/03/15 12:43:23;;;;;;;;;;;23.60;51.90;;;;;;5095704;28;19927;-63
2024/03/15 12:45:48;;;;;;;;;;;23.60;51.90;;;;;;5083992;28;20321;-63
2024/03/15 12:48:14;;;;;;;;;;;23.60;51.80;;;;;;5082339;28;19908;-62
2024/03/15 12:50:39;;;;;;;;;;;23.70;52.30;;;;;;5079104;28;19908;-63
2024/03/15 12:53:10;;;;;;;;;;;23.70;52.00;;;;;;5080326;28;20312;-63
2024/03/15 12:55:35;;;;;;;;;;;23.70;52.20;;;;;;5081055;28;20538;-63
2024/03/15 12:58:01;;;;;;;;;;;23.70;52.00;;;;;;5083280;28;19909;-63
2024/03/15 13:00:29;;;;;;;;;;;23.70;51.90;;;;;;5082285;28;19978;-63
2024/03/15 13:02:55;;;;;;;;;;;23.70;51.70;;;;;;5078131;28;19926;-64
2024/03/15 13:05:21;;;;;;;;;;;23.70;52.20;;;;;;5064605;28;20450;-63
2024/03/15 13:07:48;;;;;;;;;;;23.70;51.70;;;;;;5083529;28;20280;-63
2024/03/15 13:10:14;;;;;;;;;;;23.70;51.60;;;;;;5088853;28;19980;-63
2024/03/15 13:12:42;;;;;;;;;;;23.70;51.60;;;;;;5087652;28;20387;-62
2024/03/15 13:15:13;;;;;;;;;;;23.70;51.60;;;;;;5084376;28;19912;-63
2024/03/15 13:17:38;;;;;;;;;;;23.70;51.50;;;;;;5088433;28;20344;-64
2024/03/15 13:20:04;;;;;;;;;;;23.70;51.50;;;;;;5082038;28;19923;-63
2024/03/15 13:22:30;;;;;;;;;;;23.70;51.50;;;;;;5083645;28;20324;-63
2024/03/15 13:24:56;;;;;;;;;;;23.70;51.50;;;;;;5079784;28;20276;-63
2024/03/15 13:27:22;;;;;;;;;;;23.70;51.50;;;;;;5081614;28;19919;-62
2024/03/15 13:29:47;;;;;;;;;;;23.70;52.00;;;;;;5082042;28;19918;-62
2024/03/15 13:32:16;;;;;;;;;;;23.70;51.40;;;;;;5080757;28;19908;-62
2024/03/15 13:34:44;;;;;;;;;;;23.70;51.40;;;;;;5080629;28;20392;-65
2024/03/15 13:37:10;;;;;;;;;;;23.70;51.40;;;;;;5061381;28;19908;-65
2024/03/15 13:39:36;;;;;;;;;;;23.70;51.40;;;;;;5078436;28;19908;-65
2024/03/15 13:42:03;;;;;;;;;;;23.70;51.40;;;;;;5079574;28;20263;-65
2024/03/15 13:44:29;;;;;;;;;;;23.70;51.40;;;;;;5081855;28;20705;-64
2024/03/15 13:46:55;;;;;;;;;;;23.70;51.40;;;;;;5082959;28;19954;-64
2024/03/15 13:49:20;;;;;;;;;;;23.70;51.30;;;;;;5079941;28;20003;-64
2024/03/15 13:51:46;;;;;;;;;;;23.70;51.30;;;;;;5079761;28;20396;-65
2024/03/15 13:54:11;;;;;;;;;;;23.80;51.40;;;;;;5080043;28;19977;-66
2024/03/15 13:56:37;;;;;;;;;;;23.80;51.30;;;;;;5079049;28;19904;-64
2024/03/15 13:59:09;;;;;;;;;;;23.80;51.30;;;;;;5082823;28;19904;-64
2024/03/15 14:01:37;;;;;;;;;;;23.70;51.30;;;;;;5079648;28;19991;-64
2024/03/15 14:04:03;;;;;;;;;;;23.70;51.30;;;;;;5078181;28;19905;-64
2024/03/15 14:06:31;;;;;;;;;;;23.70;51.20;;;;;;5081528;28;19914;-64
2024/03/15 14:08:58;;;;;;;;;;;23.70;51.20;;;;;;5082965;28;20038;-65
2024/03/15 14:11:23;;;;;;;;;;;23.70;51.20;;;;;;5081719;28;19978;-65
2024/03/15 14:13:49;;;;;;;;;;;23.80;51.30;;;;;;5079277;28;19907;-64
2024/03/15 14:16:16;;;;;;;;;;;23.80;51.30;;;;;;5079946;28;19958;-65
2024/03/15 14:18:42;;;;;;;;;;;23.80;51.30;;;;;;5080664;28;20437;-64